sensor_id;sensor_type;location;lat;lon;timestamp;P1;durP1;ratioP1;P2;durP2;ratioP2
8060;SDS011;4073;42.626;25.386;2023-05-29T00:00:31;4.20;;;3.80;;
8060;SDS011;4073;42.626;25.386;2023-05-29T00:02:56;4.17;;;3.77;;
8060;SDS011;4073;42.626;25.386;2023-05-29T00:05:22;4.13;;;3.77;;
8060;SDS011;4073;42.626;25.386;2023-05-29T00:07:47;4.77;;;3.50;;
8060;SDS011;4073;42.626;25.386;2023-05-29T00:10:15;5.53;;;4.17;;
8060;SDS011;4073;42.626;25.386;2023-05-29T00:12:41;5.57;;;3.43;;
8060;SDS011;4073;42.626;25.386;2023-05-29T00:15:06;6.43;;;3.90;;
8060;SDS011;4073;42.626;25.386;2023-05-29T00:17:34;4.93;;;4.27;;
8060;SDS011;4073;42.626;25.386;2023-05-29T00:20:00;5.00;;;4.10;;
8060;SDS011;4073;42.626;25.386;2023-05-29T00:22:28;4.33;;;3.60;;
8060;SDS011;4073;42.626;25.386;2023-05-29T00:24:54;4.43;;;3.77;;
8060;SDS011;4073;42.626;25.386;2023-05-29T00:27:19;5.93;;;4.53;;
8060;SDS011;4073;42.626;25.386;2023-05-29T00:29:45;7.00;;;4.20;;
8060;SDS011;4073;42.626;25.386;2023-05-29T00:32:11;4.37;;;4.00;;
8060;SDS011;4073;42.626;25.386;2023-05-29T00:34:36;3.83;;;3.43;;
8060;SDS011;4073;42.626;25.386;2023-05-29T00:37:02;5.07;;;4.57;;
8060;SDS011;4073;42.626;25.386;2023-05-29T00:39:28;6.70;;;3.90;;
8060;SDS011;4073;42.626;25.386;2023-05-29T00:41:53;4.00;;;3.70;;
8060;SDS011;4073;42.626;25.386;2023-05-29T00:44:19;6.53;;;4.57;;
8060;SDS011;4073;42.626;25.386;2023-05-29T00:46:46;3.70;;;3.40;;
8060;SDS011;4073;42.626;25.386;2023-05-29T00:49:13;6.40;;;4.23;;
8060;SDS011;4073;42.626;25.386;2023-05-29T00:51:39;5.33;;;4.00;;
8060;SDS011;4073;42.626;25.386;2023-05-29T00:54:06;5.07;;;3.93;;
8060;SDS011;4073;42.626;25.386;2023-05-29T00:56:34;6.10;;;4.23;;
8060;SDS011;4073;42.626;25.386;2023-05-29T00:59:00;3.73;;;3.43;;
8060;SDS011;4073;42.626;25.386;2023-05-29T01:01:26;4.10;;;3.70;;
8060;SDS011;4073;42.626;25.386;2023-05-29T01:03:52;3.80;;;3.50;;
8060;SDS011;4073;42.626;25.386;2023-05-29T01:06:20;4.97;;;3.57;;
8060;SDS011;4073;42.626;25.386;2023-05-29T01:08:46;5.60;;;3.83;;
8060;SDS011;4073;42.626;25.386;2023-05-29T01:13:40;5.10;;;4.10;;
8060;SDS011;4073;42.626;25.386;2023-05-29T01:18:51;4.43;;;4.03;;
8060;SDS011;4073;42.626;25.386;2023-05-29T01:21:25;4.93;;;4.37;;
8060;SDS011;4073;42.626;25.386;2023-05-29T01:24:14;6.60;;;4.60;;
8060;SDS011;4073;42.626;25.386;2023-05-29T01:26:42;4.63;;;4.23;;
8060;SDS011;4073;42.626;25.386;2023-05-29T01:29:13;5.87;;;4.30;;
8060;SDS011;4073;42.626;25.386;2023-05-29T01:31:40;6.30;;;4.30;;
8060;SDS011;4073;42.626;25.386;2023-05-29T01:34:07;5.77;;;5.17;;
8060;SDS011;4073;42.626;25.386;2023-05-29T01:36:32;5.07;;;4.40;;
8060;SDS011;4073;42.626;25.386;2023-05-29T01:38:58;5.87;;;5.00;;
8060;SDS011;4073;42.626;25.386;2023-05-29T01:41:25;5.57;;;5.10;;
8060;SDS011;4073;42.626;25.386;2023-05-29T01:43:51;8.40;;;5.27;;
8060;SDS011;4073;42.626;25.386;2023-05-29T01:46:17;8.00;;;5.47;;
8060;SDS011;4073;42.626;25.386;2023-05-29T01:48:44;5.67;;;5.20;;
8060;SDS011;4073;42.626;25.386;2023-05-29T01:51:11;6.93;;;4.97;;
8060;SDS011;4073;42.626;25.386;2023-05-29T01:53:37;5.00;;;4.50;;
8060;SDS011;4073;42.626;25.386;2023-05-29T01:56:03;7.13;;;4.87;;
8060;SDS011;4073;42.626;25.386;2023-05-29T01:58:31;5.30;;;4.80;;
8060;SDS011;4073;42.626;25.386;2023-05-29T02:00:57;5.50;;;5.00;;
8060;SDS011;4073;42.626;25.386;2023-05-29T02:03:23;5.27;;;4.77;;
8060;SDS011;4073;42.626;25.386;2023-05-29T02:05:49;6.10;;;5.50;;
8060;SDS011;4073;42.626;25.386;2023-05-29T02:08:15;7.37;;;5.53;;
8060;SDS011;4073;42.626;25.386;2023-05-29T02:10:40;5.53;;;5.03;;
8060;SDS011;4073;42.626;25.386;2023-05-29T02:13:06;8.77;;;6.07;;
8060;SDS011;4073;42.626;25.386;2023-05-29T02:15:31;6.20;;;5.33;;
8060;SDS011;4073;42.626;25.386;2023-05-29T02:17:57;7.10;;;4.60;;
8060;SDS011;4073;42.626;25.386;2023-05-29T02:20:23;5.33;;;4.90;;
8060;SDS011;4073;42.626;25.386;2023-05-29T02:22:49;5.97;;;4.80;;
8060;SDS011;4073;42.626;25.386;2023-05-29T02:25:15;8.00;;;5.53;;
8060;SDS011;4073;42.626;25.386;2023-05-29T02:27:40;6.20;;;5.60;;
8060;SDS011;4073;42.626;25.386;2023-05-29T02:30:06;7.33;;;5.37;;
8060;SDS011;4073;42.626;25.386;2023-05-29T02:32:33;6.67;;;5.13;;
8060;SDS011;4073;42.626;25.386;2023-05-29T02:34:58;6.60;;;5.87;;
8060;SDS011;4073;42.626;25.386;2023-05-29T02:37:24;8.63;;;5.70;;
8060;SDS011;4073;42.626;25.386;2023-05-29T02:39:50;5.67;;;5.17;;
8060;SDS011;4073;42.626;25.386;2023-05-29T02:42:16;6.17;;;5.57;;
8060;SDS011;4073;42.626;25.386;2023-05-29T02:44:41;6.70;;;6.10;;
8060;SDS011;4073;42.626;25.386;2023-05-29T02:47:07;6.27;;;5.67;;
8060;SDS011;4073;42.626;25.386;2023-05-29T02:49:32;7.33;;;5.53;;
8060;SDS011;4073;42.626;25.386;2023-05-29T02:51:57;6.47;;;5.90;;
8060;SDS011;4073;42.626;25.386;2023-05-29T02:54:23;6.27;;;5.57;;
8060;SDS011;4073;42.626;25.386;2023-05-29T02:56:50;8.03;;;5.23;;
8060;SDS011;4073;42.626;25.386;2023-05-29T02:59:16;8.17;;;6.43;;
8060;SDS011;4073;42.626;25.386;2023-05-29T03:01:41;6.97;;;6.27;;
8060;SDS011;4073;42.626;25.386;2023-05-29T03:04:08;6.60;;;5.93;;
8060;SDS011;4073;42.626;25.386;2023-05-29T03:06:35;7.10;;;6.07;;
8060;SDS011;4073;42.626;25.386;2023-05-29T03:09:02;6.90;;;6.20;;
8060;SDS011;4073;42.626;25.386;2023-05-29T03:11:30;5.53;;;4.87;;
8060;SDS011;4073;42.626;25.386;2023-05-29T03:13:56;5.80;;;5.20;;
8060;SDS011;4073;42.626;25.386;2023-05-29T03:16:21;5.47;;;4.87;;
8060;SDS011;4073;42.626;25.386;2023-05-29T03:18:47;6.50;;;4.93;;
8060;SDS011;4073;42.626;25.386;2023-05-29T03:21:12;6.13;;;5.23;;
8060;SDS011;4073;42.626;25.386;2023-05-29T03:23:38;4.97;;;4.20;;
8060;SDS011;4073;42.626;25.386;2023-05-29T03:26:03;5.70;;;4.80;;
8060;SDS011;4073;42.626;25.386;2023-05-29T03:28:30;6.40;;;4.33;;
8060;SDS011;4073;42.626;25.386;2023-05-29T03:30:56;5.50;;;4.53;;
8060;SDS011;4073;42.626;25.386;2023-05-29T03:33:21;6.30;;;5.13;;
8060;SDS011;4073;42.626;25.386;2023-05-29T03:35:47;5.07;;;4.67;;
8060;SDS011;4073;42.626;25.386;2023-05-29T03:38:12;5.17;;;4.50;;
8060;SDS011;4073;42.626;25.386;2023-05-29T03:40:38;5.77;;;5.27;;
8060;SDS011;4073;42.626;25.386;2023-05-29T03:43:03;6.13;;;5.50;;
8060;SDS011;4073;42.626;25.386;2023-05-29T03:45:28;6.37;;;5.50;;
8060;SDS011;4073;42.626;25.386;2023-05-29T03:47:54;9.83;;;5.60;;
8060;SDS011;4073;42.626;25.386;2023-05-29T03:50:20;7.07;;;5.20;;
8060;SDS011;4073;42.626;25.386;2023-05-29T03:52:45;6.00;;;5.40;;
8060;SDS011;4073;42.626;25.386;2023-05-29T03:55:11;6.30;;;5.70;;
8060;SDS011;4073;42.626;25.386;2023-05-29T03:57:39;5.50;;;5.00;;
8060;SDS011;4073;42.626;25.386;2023-05-29T04:00:07;6.30;;;5.60;;
8060;SDS011;4073;42.626;25.386;2023-05-29T04:02:35;5.77;;;4.80;;
8060;SDS011;4073;42.626;25.386;2023-05-29T04:11:47;5.60;;;5.10;;
8060;SDS011;4073;42.626;25.386;2023-05-29T04:14:12;7.40;;;6.70;;
8060;SDS011;4073;42.626;25.386;2023-05-29T04:16:38;5.67;;;5.10;;
8060;SDS011;4073;42.626;25.386;2023-05-29T04:19:03;6.07;;;5.27;;
8060;SDS011;4073;42.626;25.386;2023-05-29T04:21:29;5.80;;;4.50;;
8060;SDS011;4073;42.626;25.386;2023-05-29T04:23:54;6.70;;;4.77;;
8060;SDS011;4073;42.626;25.386;2023-05-29T04:26:20;4.90;;;4.43;;
8060;SDS011;4073;42.626;25.386;2023-05-29T04:28:50;5.70;;;4.50;;
8060;SDS011;4073;42.626;25.386;2023-05-29T04:31:22;7.40;;;6.70;;
8060;SDS011;4073;42.626;25.386;2023-05-29T04:33:50;9.93;;;7.17;;
8060;SDS011;4073;42.626;25.386;2023-05-29T04:36:22;8.20;;;6.57;;
8060;SDS011;4073;42.626;25.386;2023-05-29T04:38:50;7.30;;;6.17;;
8060;SDS011;4073;42.626;25.386;2023-05-29T04:41:16;11.80;;;8.43;;
8060;SDS011;4073;42.626;25.386;2023-05-29T04:43:42;9.57;;;7.83;;
8060;SDS011;4073;42.626;25.386;2023-05-29T04:46:07;14.27;;;9.30;;
8060;SDS011;4073;42.626;25.386;2023-05-29T04:48:38;8.53;;;6.83;;
8060;SDS011;4073;42.626;25.386;2023-05-29T04:51:06;13.47;;;8.57;;
8060;SDS011;4073;42.626;25.386;2023-05-29T04:53:35;10.83;;;7.73;;
8060;SDS011;4073;42.626;25.386;2023-05-29T04:56:02;10.00;;;7.30;;
8060;SDS011;4073;42.626;25.386;2023-05-29T04:58:28;9.87;;;7.80;;
8060;SDS011;4073;42.626;25.386;2023-05-29T05:00:53;9.80;;;8.40;;
8060;SDS011;4073;42.626;25.386;2023-05-29T05:03:22;11.37;;;8.27;;
8060;SDS011;4073;42.626;25.386;2023-05-29T05:05:49;7.13;;;6.43;;
8060;SDS011;4073;42.626;25.386;2023-05-29T05:08:15;9.93;;;7.07;;
8060;SDS011;4073;42.626;25.386;2023-05-29T05:10:40;7.90;;;7.10;;
8060;SDS011;4073;42.626;25.386;2023-05-29T05:13:06;8.13;;;6.70;;
8060;SDS011;4073;42.626;25.386;2023-05-29T05:15:32;12.53;;;7.97;;
8060;SDS011;4073;42.626;25.386;2023-05-29T05:17:57;7.73;;;6.77;;
8060;SDS011;4073;42.626;25.386;2023-05-29T05:20:23;10.03;;;8.27;;
8060;SDS011;4073;42.626;25.386;2023-05-29T05:22:48;7.23;;;6.53;;
8060;SDS011;4073;42.626;25.386;2023-05-29T05:25:14;7.50;;;6.80;;
8060;SDS011;4073;42.626;25.386;2023-05-29T05:27:39;9.17;;;7.07;;
8060;SDS011;4073;42.626;25.386;2023-05-29T05:30:05;6.90;;;6.23;;
8060;SDS011;4073;42.626;25.386;2023-05-29T05:32:32;6.67;;;5.37;;
8060;SDS011;4073;42.626;25.386;2023-05-29T05:34:57;6.50;;;5.70;;
8060;SDS011;4073;42.626;25.386;2023-05-29T05:37:23;6.13;;;5.50;;
8060;SDS011;4073;42.626;25.386;2023-05-29T05:39:51;10.37;;;5.27;;
8060;SDS011;4073;42.626;25.386;2023-05-29T05:42:18;7.67;;;4.77;;
8060;SDS011;4073;42.626;25.386;2023-05-29T05:44:44;9.00;;;5.20;;
8060;SDS011;4073;42.626;25.386;2023-05-29T05:47:10;8.73;;;5.83;;
8060;SDS011;4073;42.626;25.386;2023-05-29T05:49:35;8.87;;;5.10;;
8060;SDS011;4073;42.626;25.386;2023-05-29T05:52:00;4.90;;;4.40;;
8060;SDS011;4073;42.626;25.386;2023-05-29T05:54:26;5.30;;;3.87;;
8060;SDS011;4073;42.626;25.386;2023-05-29T05:56:51;5.30;;;4.13;;
8060;SDS011;4073;42.626;25.386;2023-05-29T05:59:17;3.63;;;3.33;;
8060;SDS011;4073;42.626;25.386;2023-05-29T06:01:42;7.83;;;4.00;;
8060;SDS011;4073;42.626;25.386;2023-05-29T06:04:07;7.07;;;3.97;;
8060;SDS011;4073;42.626;25.386;2023-05-29T06:06:33;5.40;;;4.00;;
8060;SDS011;4073;42.626;25.386;2023-05-29T06:08:59;5.00;;;4.30;;
8060;SDS011;4073;42.626;25.386;2023-05-29T06:11:25;5.87;;;4.60;;
8060;SDS011;4073;42.626;25.386;2023-05-29T06:13:50;4.20;;;3.80;;
8060;SDS011;4073;42.626;25.386;2023-05-29T06:16:17;4.67;;;3.83;;
8060;SDS011;4073;42.626;25.386;2023-05-29T06:18:43;3.70;;;3.40;;
8060;SDS011;4073;42.626;25.386;2023-05-29T06:21:09;4.97;;;4.40;;
8060;SDS011;4073;42.626;25.386;2023-05-29T06:23:35;3.80;;;3.50;;
8060;SDS011;4073;42.626;25.386;2023-05-29T06:26:01;4.87;;;4.10;;
8060;SDS011;4073;42.626;25.386;2023-05-29T06:28:28;3.97;;;3.67;;
8060;SDS011;4073;42.626;25.386;2023-05-29T06:30:54;7.00;;;4.23;;
8060;SDS011;4073;42.626;25.386;2023-05-29T06:33:19;4.20;;;3.80;;
8060;SDS011;4073;42.626;25.386;2023-05-29T06:35:46;4.47;;;4.07;;
8060;SDS011;4073;42.626;25.386;2023-05-29T06:38:13;4.30;;;3.90;;
8060;SDS011;4073;42.626;25.386;2023-05-29T06:40:38;4.23;;;3.83;;
8060;SDS011;4073;42.626;25.386;2023-05-29T06:43:04;3.43;;;2.90;;
8060;SDS011;4073;42.626;25.386;2023-05-29T06:45:30;4.00;;;3.03;;
8060;SDS011;4073;42.626;25.386;2023-05-29T06:47:55;6.53;;;2.70;;
8060;SDS011;4073;42.626;25.386;2023-05-29T06:50:21;3.17;;;2.87;;
8060;SDS011;4073;42.626;25.386;2023-05-29T06:52:46;3.60;;;2.80;;
8060;SDS011;4073;42.626;25.386;2023-05-29T06:55:12;3.63;;;3.27;;
8060;SDS011;4073;42.626;25.386;2023-05-29T06:57:37;3.53;;;3.23;;
8060;SDS011;4073;42.626;25.386;2023-05-29T07:00:04;4.00;;;3.07;;
8060;SDS011;4073;42.626;25.386;2023-05-29T07:02:31;6.53;;;3.73;;
8060;SDS011;4073;42.626;25.386;2023-05-29T07:04:56;3.47;;;3.17;;
8060;SDS011;4073;42.626;25.386;2023-05-29T07:07:22;5.03;;;3.40;;
8060;SDS011;4073;42.626;25.386;2023-05-29T07:09:47;4.47;;;3.43;;
8060;SDS011;4073;42.626;25.386;2023-05-29T07:12:13;3.70;;;3.40;;
8060;SDS011;4073;42.626;25.386;2023-05-29T07:14:38;3.50;;;3.20;;
8060;SDS011;4073;42.626;25.386;2023-05-29T07:17:04;3.63;;;3.33;;
8060;SDS011;4073;42.626;25.386;2023-05-29T07:19:30;3.70;;;3.40;;
8060;SDS011;4073;42.626;25.386;2023-05-29T07:21:57;5.40;;;3.63;;
8060;SDS011;4073;42.626;25.386;2023-05-29T07:24:23;3.67;;;3.10;;
8060;SDS011;4073;42.626;25.386;2023-05-29T07:26:48;4.67;;;3.33;;
8060;SDS011;4073;42.626;25.386;2023-05-29T07:29:14;7.57;;;3.33;;
8060;SDS011;4073;42.626;25.386;2023-05-29T07:31:41;9.60;;;3.53;;
8060;SDS011;4073;42.626;25.386;2023-05-29T07:34:07;9.97;;;3.77;;
8060;SDS011;4073;42.626;25.386;2023-05-29T07:36:32;9.23;;;3.50;;
8060;SDS011;4073;42.626;25.386;2023-05-29T07:38:58;4.77;;;3.97;;
8060;SDS011;4073;42.626;25.386;2023-05-29T07:41:24;5.10;;;3.20;;
8060;SDS011;4073;42.626;25.386;2023-05-29T07:43:51;3.70;;;3.40;;
8060;SDS011;4073;42.626;25.386;2023-05-29T07:46:17;3.23;;;2.93;;
8060;SDS011;4073;42.626;25.386;2023-05-29T07:48:43;3.63;;;3.33;;
8060;SDS011;4073;42.626;25.386;2023-05-29T07:51:11;4.10;;;3.50;;
8060;SDS011;4073;42.626;25.386;2023-05-29T07:53:37;3.63;;;3.30;;
8060;SDS011;4073;42.626;25.386;2023-05-29T07:56:03;2.67;;;2.47;;
8060;SDS011;4073;42.626;25.386;2023-05-29T07:58:28;2.77;;;2.57;;
8060;SDS011;4073;42.626;25.386;2023-05-29T08:00:54;2.83;;;2.63;;
8060;SDS011;4073;42.626;25.386;2023-05-29T08:03:19;3.00;;;2.80;;
8060;SDS011;4073;42.626;25.386;2023-05-29T08:05:46;2.90;;;2.70;;
8060;SDS011;4073;42.626;25.386;2023-05-29T08:08:11;2.80;;;2.50;;
8060;SDS011;4073;42.626;25.386;2023-05-29T08:10:38;1.97;;;1.87;;
8060;SDS011;4073;42.626;25.386;2023-05-29T08:13:04;3.53;;;1.93;;
8060;SDS011;4073;42.626;25.386;2023-05-29T08:15:29;2.97;;;1.83;;
8060;SDS011;4073;42.626;25.386;2023-05-29T08:17:56;3.40;;;2.30;;
8060;SDS011;4073;42.626;25.386;2023-05-29T08:20:21;2.60;;;2.37;;
8060;SDS011;4073;42.626;25.386;2023-05-29T08:22:47;2.63;;;2.13;;
8060;SDS011;4073;42.626;25.386;2023-05-29T08:25:12;2.30;;;2.10;;
8060;SDS011;4073;42.626;25.386;2023-05-29T08:27:38;2.40;;;2.20;;
8060;SDS011;4073;42.626;25.386;2023-05-29T08:30:03;2.50;;;2.30;;
8060;SDS011;4073;42.626;25.386;2023-05-29T08:32:29;2.40;;;1.93;;
8060;SDS011;4073;42.626;25.386;2023-05-29T08:34:55;1.80;;;1.70;;
8060;SDS011;4073;42.626;25.386;2023-05-29T08:37:20;1.63;;;1.53;;
8060;SDS011;4073;42.626;25.386;2023-05-29T08:39:46;18.27;;;11.97;;
8060;SDS011;4073;42.626;25.386;2023-05-29T08:42:19;2.17;;;1.97;;
8060;SDS011;4073;42.626;25.386;2023-05-29T08:44:47;2.90;;;2.30;;
8060;SDS011;4073;42.626;25.386;2023-05-29T08:47:16;3.60;;;3.00;;
8060;SDS011;4073;42.626;25.386;2023-05-29T08:49:46;2.60;;;2.20;;
8060;SDS011;4073;42.626;25.386;2023-05-29T08:52:18;2.90;;;2.30;;
8060;SDS011;4073;42.626;25.386;2023-05-29T08:54:45;2.20;;;2.00;;
8060;SDS011;4073;42.626;25.386;2023-05-29T08:57:11;1.73;;;1.63;;
8060;SDS011;4073;42.626;25.386;2023-05-29T08:59:38;2.30;;;2.07;;
8060;SDS011;4073;42.626;25.386;2023-05-29T09:02:07;2.23;;;2.03;;
8060;SDS011;4073;42.626;25.386;2023-05-29T09:04:32;2.37;;;2.00;;
8060;SDS011;4073;42.626;25.386;2023-05-29T09:06:59;2.13;;;1.80;;
8060;SDS011;4073;42.626;25.386;2023-05-29T09:09:25;2.37;;;1.87;;
8060;SDS011;4073;42.626;25.386;2023-05-29T09:11:52;1.80;;;1.70;;
8060;SDS011;4073;42.626;25.386;2023-05-29T09:17:03;2.27;;;1.87;;
8060;SDS011;4073;42.626;25.386;2023-05-29T09:19:31;2.23;;;1.60;;
8060;SDS011;4073;42.626;25.386;2023-05-29T09:22:30;2.10;;;1.90;;
8060;SDS011;4073;42.626;25.386;2023-05-29T09:24:48;7.93;;;3.00;;
8060;SDS011;4073;42.626;25.386;2023-05-29T09:27:15;27.73;;;7.00;;
8060;SDS011;4073;42.626;25.386;2023-05-29T09:29:43;7.57;;;2.43;;
8060;SDS011;4073;42.626;25.386;2023-05-29T09:32:11;2.77;;;2.50;;
8060;SDS011;4073;42.626;25.386;2023-05-29T09:34:37;4.57;;;2.30;;
8060;SDS011;4073;42.626;25.386;2023-05-29T09:37:05;2.10;;;1.90;;
8060;SDS011;4073;42.626;25.386;2023-05-29T09:39:44;2.63;;;2.20;;
8060;SDS011;4073;42.626;25.386;2023-05-29T09:42:11;1.70;;;1.60;;
8060;SDS011;4073;42.626;25.386;2023-05-29T09:44:36;2.27;;;1.93;;
8060;SDS011;4073;42.626;25.386;2023-05-29T09:47:02;2.10;;;1.90;;
8060;SDS011;4073;42.626;25.386;2023-05-29T09:49:29;2.00;;;1.90;;
8060;SDS011;4073;42.626;25.386;2023-05-29T09:51:56;2.90;;;1.73;;
8060;SDS011;4073;42.626;25.386;2023-05-29T09:54:24;1.83;;;1.73;;
8060;SDS011;4073;42.626;25.386;2023-05-29T09:56:53;3.63;;;1.90;;
8060;SDS011;4073;42.626;25.386;2023-05-29T09:59:21;1.93;;;1.73;;
8060;SDS011;4073;42.626;25.386;2023-05-29T10:01:49;1.70;;;1.60;;
8060;SDS011;4073;42.626;25.386;2023-05-29T10:04:26;1.90;;;1.67;;
8060;SDS011;4073;42.626;25.386;2023-05-29T10:06:52;1.90;;;1.80;;
8060;SDS011;4073;42.626;25.386;2023-05-29T10:09:21;2.40;;;1.70;;
8060;SDS011;4073;42.626;25.386;2023-05-29T10:11:52;2.23;;;2.00;;
8060;SDS011;4073;42.626;25.386;2023-05-29T10:14:22;1.90;;;1.80;;
8060;SDS011;4073;42.626;25.386;2023-05-29T10:16:50;5.10;;;1.80;;
8060;SDS011;4073;42.626;25.386;2023-05-29T10:19:22;2.07;;;1.90;;
8060;SDS011;4073;42.626;25.386;2023-05-29T10:21:52;3.67;;;1.90;;
8060;SDS011;4073;42.626;25.386;2023-05-29T10:24:21;4.47;;;2.10;;
8060;SDS011;4073;42.626;25.386;2023-05-29T10:26:47;3.47;;;1.97;;
8060;SDS011;4073;42.626;25.386;2023-05-29T10:35:20;1.83;;;1.70;;
8060;SDS011;4073;42.626;25.386;2023-05-29T10:38:35;2.30;;;1.63;;
8060;SDS011;4073;42.626;25.386;2023-05-29T10:40:43;2.40;;;1.93;;
8060;SDS011;4073;42.626;25.386;2023-05-29T10:43:29;4.83;;;2.13;;
8060;SDS011;4073;42.626;25.386;2023-05-29T10:46:02;1.83;;;1.60;;
8060;SDS011;4073;42.626;25.386;2023-05-29T10:50:56;4.37;;;2.23;;
8060;SDS011;4073;42.626;25.386;2023-05-29T10:53:23;3.83;;;2.30;;
8060;SDS011;4073;42.626;25.386;2023-05-29T10:55:52;5.40;;;2.20;;
8060;SDS011;4073;42.626;25.386;2023-05-29T10:58:19;2.00;;;1.83;;
8060;SDS011;4073;42.626;25.386;2023-05-29T11:00:46;2.23;;;2.03;;
8060;SDS011;4073;42.626;25.386;2023-05-29T11:03:17;3.27;;;2.33;;
8060;SDS011;4073;42.626;25.386;2023-05-29T11:11:12;3.10;;;2.80;;
8060;SDS011;4073;42.626;25.386;2023-05-29T11:13:38;3.67;;;2.57;;
8060;SDS011;4073;42.626;25.386;2023-05-29T11:18:50;3.77;;;2.77;;
8060;SDS011;4073;42.626;25.386;2023-05-29T11:24:12;6.10;;;2.93;;
8060;SDS011;4073;42.626;25.386;2023-05-29T11:26:44;2.90;;;2.60;;
8060;SDS011;4073;42.626;25.386;2023-05-29T11:29:10;4.57;;;3.50;;
8060;SDS011;4073;42.626;25.386;2023-05-29T11:31:38;4.80;;;2.67;;
8060;SDS011;4073;42.626;25.386;2023-05-29T11:34:05;6.33;;;2.87;;
8060;SDS011;4073;42.626;25.386;2023-05-29T11:36:35;2.70;;;2.50;;
8060;SDS011;4073;42.626;25.386;2023-05-29T11:39:02;5.00;;;2.70;;
8060;SDS011;4073;42.626;25.386;2023-05-29T11:41:28;4.13;;;3.00;;
8060;SDS011;4073;42.626;25.386;2023-05-29T11:44:01;2.80;;;2.60;;
8060;SDS011;4073;42.626;25.386;2023-05-29T11:46:30;3.57;;;3.03;;
8060;SDS011;4073;42.626;25.386;2023-05-29T11:48:57;2.90;;;2.70;;
8060;SDS011;4073;42.626;25.386;2023-05-29T11:51:23;3.47;;;2.70;;
8060;SDS011;4073;42.626;25.386;2023-05-29T11:53:49;3.53;;;2.87;;
8060;SDS011;4073;42.626;25.386;2023-05-29T11:56:18;6.97;;;3.57;;
8060;SDS011;4073;42.626;25.386;2023-05-29T11:58:43;3.97;;;3.60;;
8060;SDS011;4073;42.626;25.386;2023-05-29T12:01:10;11.00;;;3.30;;
8060;SDS011;4073;42.626;25.386;2023-05-29T12:03:42;5.00;;;3.27;;
8060;SDS011;4073;42.626;25.386;2023-05-29T12:06:08;4.23;;;2.90;;
8060;SDS011;4073;42.626;25.386;2023-05-29T12:08:35;5.87;;;3.40;;
8060;SDS011;4073;42.626;25.386;2023-05-29T12:11:02;7.50;;;3.53;;
8060;SDS011;4073;42.626;25.386;2023-05-29T12:13:27;6.23;;;3.63;;
8060;SDS011;4073;42.626;25.386;2023-05-29T12:15:57;6.60;;;3.70;;
8060;SDS011;4073;42.626;25.386;2023-05-29T12:18:25;7.03;;;3.90;;
8060;SDS011;4073;42.626;25.386;2023-05-29T12:20:56;3.87;;;3.47;;
8060;SDS011;4073;42.626;25.386;2023-05-29T12:23:23;6.50;;;3.87;;
8060;SDS011;4073;42.626;25.386;2023-05-29T12:25:50;7.70;;;4.60;;
8060;SDS011;4073;42.626;25.386;2023-05-29T12:28:16;3.90;;;3.60;;
8060;SDS011;4073;42.626;25.386;2023-05-29T12:30:46;4.13;;;3.70;;
8060;SDS011;4073;42.626;25.386;2023-05-29T12:33:31;7.47;;;3.67;;
8060;SDS011;4073;42.626;25.386;2023-05-29T12:36:07;6.30;;;3.60;;
8060;SDS011;4073;42.626;25.386;2023-05-29T12:38:49;4.47;;;3.50;;
8060;SDS011;4073;42.626;25.386;2023-05-29T12:41:25;13.97;;;4.10;;
8060;SDS011;4073;42.626;25.386;2023-05-29T12:43:57;10.17;;;4.37;;
8060;SDS011;4073;42.626;25.386;2023-05-29T12:46:26;12.67;;;4.67;;
8060;SDS011;4073;42.626;25.386;2023-05-29T12:48:52;11.67;;;3.97;;
8060;SDS011;4073;42.626;25.386;2023-05-29T12:51:27;13.50;;;5.47;;
8060;SDS011;4073;42.626;25.386;2023-05-29T12:53:53;5.37;;;3.90;;
8060;SDS011;4073;42.626;25.386;2023-05-29T12:56:23;5.63;;;4.10;;
8060;SDS011;4073;42.626;25.386;2023-05-29T12:58:51;15.70;;;3.93;;
8060;SDS011;4073;42.626;25.386;2023-05-29T13:01:17;12.93;;;4.93;;
8060;SDS011;4073;42.626;25.386;2023-05-29T13:03:42;12.47;;;4.33;;
8060;SDS011;4073;42.626;25.386;2023-05-29T13:06:08;9.50;;;4.70;;
8060;SDS011;4073;42.626;25.386;2023-05-29T13:08:33;5.87;;;4.13;;
8060;SDS011;4073;42.626;25.386;2023-05-29T13:10:59;11.93;;;4.33;;
8060;SDS011;4073;42.626;25.386;2023-05-29T13:13:25;8.77;;;4.57;;
8060;SDS011;4073;42.626;25.386;2023-05-29T13:15:50;7.27;;;4.97;;
8060;SDS011;4073;42.626;25.386;2023-05-29T13:18:15;6.53;;;4.57;;
8060;SDS011;4073;42.626;25.386;2023-05-29T13:20:41;8.73;;;3.97;;
8060;SDS011;4073;42.626;25.386;2023-05-29T13:23:06;6.47;;;4.60;;
8060;SDS011;4073;42.626;25.386;2023-05-29T13:25:33;4.97;;;3.80;;
8060;SDS011;4073;42.626;25.386;2023-05-29T13:27:59;13.43;;;4.77;;
8060;SDS011;4073;42.626;25.386;2023-05-29T13:30:25;14.33;;;5.03;;
8060;SDS011;4073;42.626;25.386;2023-05-29T13:32:52;6.20;;;3.83;;
8060;SDS011;4073;42.626;25.386;2023-05-29T13:35:18;6.07;;;3.83;;
8060;SDS011;4073;42.626;25.386;2023-05-29T13:37:44;4.33;;;3.83;;
8060;SDS011;4073;42.626;25.386;2023-05-29T13:40:10;5.50;;;4.07;;
8060;SDS011;4073;42.626;25.386;2023-05-29T13:42:38;7.33;;;4.00;;
8060;SDS011;4073;42.626;25.386;2023-05-29T13:45:04;5.87;;;3.87;;
8060;SDS011;4073;42.626;25.386;2023-05-29T13:47:32;5.70;;;3.57;;
8060;SDS011;4073;42.626;25.386;2023-05-29T13:49:57;8.23;;;3.47;;
8060;SDS011;4073;42.626;25.386;2023-05-29T13:52:23;8.10;;;3.10;;
8060;SDS011;4073;42.626;25.386;2023-05-29T13:54:49;4.47;;;3.10;;
8060;SDS011;4073;42.626;25.386;2023-05-29T13:57:14;3.80;;;2.90;;
8060;SDS011;4073;42.626;25.386;2023-05-29T13:59:40;6.53;;;3.50;;
8060;SDS011;4073;42.626;25.386;2023-05-29T14:02:05;5.90;;;3.50;;
8060;SDS011;4073;42.626;25.386;2023-05-29T14:04:32;5.60;;;4.17;;
8060;SDS011;4073;42.626;25.386;2023-05-29T14:06:58;4.17;;;3.57;;
8060;SDS011;4073;42.626;25.386;2023-05-29T14:09:24;5.27;;;3.97;;
8060;SDS011;4073;42.626;25.386;2023-05-29T14:11:55;5.93;;;4.30;;
8060;SDS011;4073;42.626;25.386;2023-05-29T14:14:25;9.13;;;4.20;;
8060;SDS011;4073;42.626;25.386;2023-05-29T14:16:51;5.83;;;4.30;;
8060;SDS011;4073;42.626;25.386;2023-05-29T14:19:18;5.63;;;4.53;;
8060;SDS011;4073;42.626;25.386;2023-05-29T14:21:44;4.83;;;4.30;;
8060;SDS011;4073;42.626;25.386;2023-05-29T14:24:10;5.63;;;5.07;;
8060;SDS011;4073;42.626;25.386;2023-05-29T14:26:36;5.03;;;4.53;;
8060;SDS011;4073;42.626;25.386;2023-05-29T14:29:02;5.23;;;4.47;;
8060;SDS011;4073;42.626;25.386;2023-05-29T14:31:28;5.17;;;4.27;;
8060;SDS011;4073;42.626;25.386;2023-05-29T14:33:53;4.90;;;4.40;;
8060;SDS011;4073;42.626;25.386;2023-05-29T14:36:19;5.37;;;4.87;;
8060;SDS011;4073;42.626;25.386;2023-05-29T14:38:44;5.20;;;4.40;;
8060;SDS011;4073;42.626;25.386;2023-05-29T14:41:11;4.40;;;4.00;;
8060;SDS011;4073;42.626;25.386;2023-05-29T14:43:37;6.73;;;4.97;;
8060;SDS011;4073;42.626;25.386;2023-05-29T14:46:04;5.33;;;3.97;;
8060;SDS011;4073;42.626;25.386;2023-05-29T14:48:30;6.27;;;4.40;;
8060;SDS011;4073;42.626;25.386;2023-05-29T14:50:55;6.37;;;4.67;;
8060;SDS011;4073;42.626;25.386;2023-05-29T14:53:21;5.50;;;4.70;;
8060;SDS011;4073;42.626;25.386;2023-05-29T14:55:47;6.30;;;5.00;;
8060;SDS011;4073;42.626;25.386;2023-05-29T14:58:13;7.00;;;5.57;;
8060;SDS011;4073;42.626;25.386;2023-05-29T15:00:39;5.40;;;4.90;;
8060;SDS011;4073;42.626;25.386;2023-05-29T15:03:05;6.77;;;4.77;;
8060;SDS011;4073;42.626;25.386;2023-05-29T15:05:30;4.43;;;4.00;;
8060;SDS011;4073;42.626;25.386;2023-05-29T15:07:55;5.50;;;4.33;;
8060;SDS011;4073;42.626;25.386;2023-05-29T15:10:24;5.87;;;4.33;;
8060;SDS011;4073;42.626;25.386;2023-05-29T15:12:50;6.17;;;4.53;;
8060;SDS011;4073;42.626;25.386;2023-05-29T15:15:27;4.63;;;4.23;;
8060;SDS011;4073;42.626;25.386;2023-05-29T15:17:53;4.37;;;3.97;;
8060;SDS011;4073;42.626;25.386;2023-05-29T15:20:22;5.50;;;4.43;;
8060;SDS011;4073;42.626;25.386;2023-05-29T15:22:49;4.57;;;4.17;;
8060;SDS011;4073;42.626;25.386;2023-05-29T15:25:16;4.97;;;4.47;;
8060;SDS011;4073;42.626;25.386;2023-05-29T15:27:44;4.30;;;3.87;;
8060;SDS011;4073;42.626;25.386;2023-05-29T15:30:11;5.60;;;4.27;;
8060;SDS011;4073;42.626;25.386;2023-05-29T15:32:38;4.10;;;3.53;;